createdAt,value
2023-04-19T00:02:13.352Z,6.93
2023-04-19T00:04:40.314Z,6.75
2023-04-19T00:07:09.515Z,6.68
2023-04-19T00:09:35.954Z,7.47
2023-04-19T00:12:03.389Z,7.40
2023-04-19T00:14:29.841Z,7.38
2023-04-19T00:16:56.422Z,8.00
2023-04-19T00:19:23.208Z,7.68
2023-04-19T00:21:49.718Z,7.03
2023-04-19T00:24:16.305Z,7.32
2023-04-19T00:26:42.913Z,7.75
2023-04-19T00:29:09.626Z,8.15
2023-04-19T00:31:39.710Z,7.95
2023-04-19T00:34:06.687Z,7.97
2023-04-19T00:36:33.240Z,7.82
2023-04-19T00:38:59.685Z,8.35
2023-04-19T00:41:26.173Z,7.65
2023-04-19T00:43:59.113Z,7.72
2023-04-19T00:46:26.070Z,8.60
2023-04-19T00:48:52.739Z,7.95
2023-04-19T00:51:20.002Z,8.20
2023-04-19T00:53:46.672Z,7.75
2023-04-19T00:56:14.710Z,7.53
2023-04-19T00:58:41.362Z,7.45
2023-04-19T01:01:07.919Z,7.13
2023-04-19T01:03:35.085Z,6.63
2023-04-19T01:06:02.124Z,6.35
2023-04-19T01:08:28.645Z,5.40
2023-04-19T01:10:58.349Z,5.75
2023-04-19T01:13:31.184Z,5.40
2023-04-19T01:15:58.014Z,5.15
2023-04-19T01:18:25.621Z,5.75
2023-04-19T01:20:52.825Z,4.90
2023-04-19T01:23:22.069Z,5.40
2023-04-19T01:25:48.524Z,4.60
2023-04-19T01:28:15.001Z,5.40
2023-04-19T01:30:41.556Z,5.43
2023-04-19T01:33:08.030Z,4.50
2023-04-19T01:35:34.504Z,5.00
2023-04-19T01:38:02.049Z,5.43
2023-04-19T01:40:31.047Z,5.47
2023-04-19T01:43:00.331Z,4.95
2023-04-19T01:45:28.708Z,5.95
2023-04-19T01:47:56.104Z,4.93
2023-04-19T01:50:22.613Z,5.30
2023-04-19T01:52:49.116Z,5.18
2023-04-19T01:55:15.728Z,5.53
2023-04-19T01:57:42.264Z,5.43
2023-04-19T02:00:09.443Z,5.32
2023-04-19T02:02:37.907Z,5.20
2023-04-19T02:05:06.698Z,5.30
2023-04-19T02:07:33.209Z,5.35
2023-04-19T02:10:00.262Z,5.32
2023-04-19T02:12:28.833Z,5.55
2023-04-19T02:14:59.536Z,5.63
2023-04-19T02:17:26.593Z,5.35
2023-04-19T02:19:55.949Z,5.05
2023-04-19T02:22:22.452Z,5.78
2023-04-19T02:24:50.776Z,5.50
2023-04-19T02:27:17.797Z,5.82
2023-04-19T02:29:44.722Z,5.15
2023-04-19T02:32:14.212Z,4.88
2023-04-19T02:34:40.748Z,5.25
2023-04-19T02:37:07.254Z,5.30
2023-04-19T02:39:34.365Z,5.38
2023-04-19T02:42:01.399Z,5.82
2023-04-19T02:44:28.016Z,5.57
2023-04-19T02:46:57.705Z,5.30
2023-04-19T02:49:24.257Z,4.80
2023-04-19T02:51:52.697Z,4.95
2023-04-19T02:54:19.235Z,5.07
2023-04-19T02:56:45.730Z,5.60
2023-04-19T02:59:12.245Z,5.47
2023-04-19T03:01:38.689Z,5.57
2023-04-19T03:04:05.393Z,5.63
2023-04-19T03:06:31.987Z,5.05
2023-04-19T03:08:58.477Z,5.65
2023-04-19T03:11:24.951Z,5.40
2023-04-19T03:13:54.223Z,6.10
2023-04-19T03:16:21.335Z,5.25
2023-04-19T03:18:49.447Z,5.95
2023-04-19T03:21:16.207Z,5.35
2023-04-19T03:23:42.826Z,5.57
2023-04-19T03:26:09.305Z,5.13
2023-04-19T03:28:35.727Z,5.28
2023-04-19T03:31:02.898Z,5.18
2023-04-19T03:33:29.459Z,5.85
2023-04-19T03:35:55.959Z,5.63
2023-04-19T03:38:22.433Z,6.05
2023-04-19T03:40:48.921Z,5.88
2023-04-19T03:43:15.428Z,5.72
2023-04-19T03:45:41.977Z,5.25
2023-04-19T03:48:08.471Z,5.50
2023-04-19T03:50:35.025Z,5.47
2023-04-19T03:53:04.596Z,5.65
2023-04-19T03:55:31.381Z,5.88
2023-04-19T03:57:57.957Z,5.63
2023-04-19T04:00:24.611Z,5.63
2023-04-19T04:02:51.225Z,5.35
2023-04-19T04:05:17.919Z,5.15
2023-04-19T04:07:44.474Z,5.80
2023-04-19T04:10:11.031Z,5.57
2023-04-19T04:12:37.464Z,5.45
2023-04-19T04:15:05.022Z,6.47
2023-04-19T04:17:31.535Z,5.53
2023-04-19T04:19:58.068Z,6.25
2023-04-19T04:22:24.573Z,5.57
2023-04-19T04:24:51.094Z,6.05
2023-04-19T04:27:21.128Z,5.60
2023-04-19T04:29:49.204Z,5.78
2023-04-19T04:32:18.162Z,6.10
2023-04-19T04:34:44.704Z,5.15
2023-04-19T04:37:11.783Z,5.53
2023-04-19T04:39:39.765Z,6.13
2023-04-19T04:42:08.875Z,5.22
2023-04-19T04:44:36.288Z,5.78
2023-04-19T04:47:03.282Z,5.47
2023-04-19T04:49:30.476Z,5.32
2023-04-19T04:52:00.137Z,5.30
2023-04-19T04:54:28.652Z,5.70
2023-04-19T04:56:55.331Z,5.22
2023-04-19T04:59:21.844Z,5.20
2023-04-19T05:01:48.378Z,5.03
2023-04-19T05:04:15.351Z,5.28
2023-04-19T05:06:42.274Z,5.10
2023-04-19T05:09:08.757Z,5.55
2023-04-19T05:11:35.375Z,4.50
2023-04-19T05:14:02.480Z,4.95
2023-04-19T05:16:29.482Z,5.00
2023-04-19T05:18:56.085Z,4.65
2023-04-19T05:21:22.746Z,4.93
2023-04-19T05:23:49.192Z,4.90
2023-04-19T05:26:15.869Z,4.30
2023-04-19T05:28:43.512Z,4.32
2023-04-19T05:31:10.082Z,4.50
2023-04-19T05:33:36.628Z,4.47
2023-04-19T05:36:03.386Z,4.38
2023-04-19T05:38:29.917Z,5.07
2023-04-19T05:40:56.411Z,4.47
2023-04-19T05:43:22.869Z,4.43
2023-04-19T05:45:49.490Z,3.95
2023-04-19T05:48:16.070Z,4.05
2023-04-19T05:50:42.520Z,4.72
2023-04-19T05:53:09.005Z,4.07
2023-04-19T05:55:35.687Z,4.40
2023-04-19T05:58:02.241Z,4.50
2023-04-19T06:00:28.812Z,4.55
2023-04-19T06:02:55.464Z,4.30
2023-04-19T06:05:22.641Z,4.50
2023-04-19T06:07:55.180Z,3.75
2023-04-19T06:10:34.315Z,3.80
2023-04-19T06:13:15.390Z,4.07
2023-04-19T06:15:42.065Z,4.00
2023-04-19T06:18:18.995Z,4.90
2023-04-19T06:20:46.801Z,3.97
2023-04-19T06:23:14.814Z,3.63
2023-04-19T06:25:41.711Z,4.40
2023-04-19T06:28:08.224Z,4.30
2023-04-19T06:30:34.762Z,4.00
2023-04-19T06:33:01.264Z,4.18
2023-04-19T06:35:27.845Z,4.50
2023-04-19T06:37:54.340Z,4.20
2023-04-19T06:40:20.982Z,4.10
2023-04-19T06:42:47.505Z,3.88
2023-04-19T06:45:15.155Z,3.88
2023-04-19T06:47:41.766Z,3.65
2023-04-19T06:50:08.881Z,4.03
2023-04-19T06:52:35.381Z,4.18
2023-04-19T06:55:01.891Z,3.72
2023-04-19T06:57:28.355Z,4.30
2023-04-19T06:59:55.625Z,4.57
2023-04-19T07:02:22.201Z,4.15
2023-04-19T07:04:48.900Z,4.10
2023-04-19T07:07:15.639Z,4.10
2023-04-19T07:09:42.375Z,4.05
2023-04-19T07:12:08.964Z,4.72
2023-04-19T07:14:35.520Z,4.78
2023-04-19T07:17:04.307Z,4.70
2023-04-19T07:19:31.378Z,4.28
2023-04-19T07:21:57.971Z,5.05
2023-04-19T07:24:26.136Z,5.03
2023-04-19T07:26:52.643Z,4.60
2023-04-19T07:29:19.221Z,4.93
2023-04-19T07:31:48.671Z,3.90
2023-04-19T07:34:15.462Z,4.13
2023-04-19T07:36:43.520Z,3.60
2023-04-19T07:39:10.058Z,4.07
2023-04-19T07:41:36.738Z,4.32
2023-04-19T07:44:06.714Z,3.58
2023-04-19T07:46:33.306Z,4.00
2023-04-19T07:48:59.785Z,4.18
2023-04-19T07:51:26.467Z,3.53
2023-04-19T07:53:52.936Z,4.55
2023-04-19T07:56:22.620Z,4.15
2023-04-19T07:59:04.295Z,4.47
2023-04-19T08:01:33.990Z,3.45
2023-04-19T08:04:01.089Z,4.88
2023-04-19T08:06:29.681Z,4.47
2023-04-19T08:08:56.449Z,4.80
2023-04-19T08:11:25.082Z,4.57
2023-04-19T08:14:04.604Z,3.72
2023-04-19T08:17:14.678Z,4.50
2023-04-19T08:19:19.719Z,4.60
2023-04-19T08:21:46.418Z,3.10
2023-04-19T08:24:12.904Z,4.00
2023-04-19T08:26:39.371Z,4.05
2023-04-19T08:29:05.876Z,3.05
2023-04-19T08:31:32.578Z,3.15
2023-04-19T08:34:00.489Z,3.95
2023-04-19T08:36:39.197Z,4.35
2023-04-19T08:39:20.931Z,4.18
2023-04-19T08:42:08.498Z,4.20
2023-04-19T08:44:54.300Z,4.40
2023-04-19T08:47:33.519Z,4.80
2023-04-19T08:52:39.125Z,4.47
2023-04-19T08:55:11.242Z,4.55
2023-04-19T08:57:39.454Z,4.80
2023-04-19T09:00:11.295Z,4.18
2023-04-19T09:02:52.081Z,4.43
2023-04-19T09:05:19.647Z,4.10
2023-04-19T09:07:47.029Z,4.35
2023-04-19T09:10:16.048Z,4.25
2023-04-19T09:12:43.159Z,3.00
2023-04-19T09:15:10.753Z,3.60
2023-04-19T09:17:39.134Z,5.18
2023-04-19T09:20:06.783Z,3.30
2023-04-19T09:22:33.593Z,3.22
2023-04-19T09:27:33.015Z,4.40
2023-04-19T09:30:01.188Z,3.50
2023-04-19T09:32:28.662Z,4.22
2023-04-19T09:34:57.459Z,3.78
2023-04-19T09:37:39.144Z,3.15
2023-04-19T09:40:25.213Z,2.60
2023-04-19T09:45:30.043Z,3.65
2023-04-19T09:48:07.784Z,4.38
2023-04-19T09:50:50.422Z,4.15
2023-04-19T09:53:23.438Z,4.15
2023-04-19T09:56:00.346Z,2.80
2023-04-19T09:58:34.297Z,2.40
2023-04-19T10:01:14.292Z,3.65
2023-04-19T10:03:49.298Z,3.72
2023-04-19T10:06:33.194Z,3.00
2023-04-19T10:09:04.765Z,3.30
2023-04-19T10:11:40.204Z,2.05
2023-04-19T10:14:08.941Z,3.15
2023-04-19T10:16:37.001Z,4.03
2023-04-19T10:19:10.214Z,3.60
2023-04-19T10:21:38.297Z,3.88
2023-04-19T10:24:05.741Z,1.92
2023-04-19T10:27:13.632Z,3.60
2023-04-19T10:30:03.909Z,3.40
2023-04-19T10:32:42.420Z,2.17
2023-04-19T10:35:23.784Z,3.20
2023-04-19T10:38:07.741Z,2.67
2023-04-19T10:40:52.852Z,2.35
2023-04-19T10:43:19.856Z,1.95
2023-04-19T10:45:47.261Z,3.80
2023-04-19T10:48:35.194Z,1.83
2023-04-19T10:51:14.979Z,3.40
2023-04-19T10:53:45.893Z,3.63
2023-04-19T10:56:12.748Z,3.60
2023-04-19T10:59:01.252Z,2.33
2023-04-19T11:01:40.276Z,3.78
2023-04-19T11:04:08.989Z,3.05
2023-04-19T11:06:56.354Z,3.80
2023-04-19T11:09:34.561Z,2.40
2023-04-19T11:12:15.646Z,3.38
2023-04-19T11:14:51.078Z,3.67
2023-04-19T11:17:25.936Z,3.47
2023-04-19T11:20:02.232Z,3.65
2023-04-19T11:22:34.036Z,3.58
2023-04-19T11:25:06.234Z,3.30
2023-04-19T11:27:34.100Z,2.85
2023-04-19T11:30:21.537Z,3.72
2023-04-19T11:32:49.859Z,3.03
2023-04-19T11:35:20.748Z,3.08
2023-04-19T11:37:47.323Z,3.25
2023-04-19T11:40:18.416Z,3.53
2023-04-19T11:42:45.723Z,3.07
2023-04-19T11:45:29.422Z,2.38
2023-04-19T11:47:57.903Z,3.40
2023-04-19T11:50:39.283Z,2.75
2023-04-19T11:53:32.940Z,2.28
2023-04-19T11:56:07.050Z,3.05
2023-04-19T11:58:44.540Z,3.35
2023-04-19T12:01:13.468Z,2.50
2023-04-19T12:03:57.616Z,3.22
2023-04-19T12:06:29.787Z,2.90
2023-04-19T12:11:29.486Z,2.50
2023-04-19T12:14:12.426Z,2.63
2023-04-19T12:16:39.027Z,2.95
2023-04-19T12:19:17.426Z,2.55
2023-04-19T12:21:45.389Z,2.85
2023-04-19T12:24:14.750Z,2.90
2023-04-19T12:26:56.783Z,3.20
2023-04-19T12:29:23.447Z,2.35
2023-04-19T12:31:49.969Z,3.10
2023-04-19T12:34:16.590Z,3.40
2023-04-19T12:36:43.125Z,2.42
2023-04-19T12:39:09.783Z,1.65
2023-04-19T12:41:36.338Z,1.98
2023-04-19T12:44:03.031Z,2.65
2023-04-19T12:46:29.843Z,3.40
2023-04-19T12:48:56.390Z,3.92
2023-04-19T12:51:22.865Z,3.10
2023-04-19T12:53:50.425Z,3.47
2023-04-19T12:56:18.048Z,1.88
2023-04-19T12:58:44.738Z,3.53
2023-04-19T13:01:11.460Z,3.20
2023-04-19T13:03:38.250Z,2.92
2023-04-19T13:06:05.849Z,3.50
2023-04-19T13:08:43.441Z,3.15
2023-04-19T13:11:12.596Z,3.97
2023-04-19T13:13:39.104Z,2.67
2023-04-19T13:16:06.454Z,2.33
2023-04-19T13:18:32.933Z,3.67
2023-04-19T13:20:59.399Z,2.55
2023-04-19T13:23:28.766Z,1.67
2023-04-19T13:25:55.324Z,2.67
2023-04-19T13:28:21.777Z,2.08
2023-04-19T13:30:48.335Z,2.10
2023-04-19T13:33:17.849Z,4.05
2023-04-19T13:35:47.669Z,3.70
2023-04-19T13:38:14.167Z,3.80
2023-04-19T13:40:40.689Z,2.85
2023-04-19T13:43:07.172Z,4.15
2023-04-19T13:45:33.707Z,1.90
2023-04-19T13:48:00.251Z,2.25
2023-04-19T13:50:26.850Z,1.77
2023-04-19T13:52:53.353Z,2.28
2023-04-19T13:55:19.844Z,2.40
2023-04-19T13:57:46.363Z,3.35
2023-04-19T14:00:13.394Z,3.40
2023-04-19T14:02:45.641Z,3.30
2023-04-19T14:05:12.333Z,3.60
2023-04-19T14:07:42.093Z,3.80
2023-04-19T14:10:09.829Z,3.38
2023-04-19T14:12:36.383Z,2.50
2023-04-19T14:15:03.329Z,3.13
2023-04-19T14:17:29.856Z,2.38
2023-04-19T14:19:56.873Z,3.80
2023-04-19T14:22:23.346Z,3.92
2023-04-19T14:24:49.822Z,4.07
2023-04-19T14:27:16.283Z,3.97
2023-04-19T14:29:42.739Z,3.40
2023-04-19T14:32:24.369Z,3.85
2023-04-19T14:34:53.435Z,3.42
2023-04-19T14:37:21.829Z,3.90
2023-04-19T14:39:48.347Z,4.13
2023-04-19T14:42:14.914Z,4.30
2023-04-19T14:44:41.575Z,3.80
2023-04-19T14:47:08.151Z,4.30
2023-04-19T14:49:34.715Z,4.43
2023-04-19T14:52:04.132Z,4.10
2023-04-19T14:54:30.731Z,3.97
2023-04-19T14:56:57.264Z,2.85
2023-04-19T14:59:23.708Z,3.58
2023-04-19T15:01:50.256Z,3.42
2023-04-19T15:04:16.875Z,3.47
2023-04-19T15:06:43.510Z,2.85
2023-04-19T15:09:10.328Z,3.22
2023-04-19T15:11:37.082Z,4.57
2023-04-19T15:14:03.553Z,4.47
2023-04-19T15:16:30.224Z,4.03
2023-04-19T15:18:57.144Z,4.10
2023-04-19T15:21:24.812Z,3.75
2023-04-19T15:23:51.527Z,4.30
2023-04-19T15:26:18.133Z,3.10
2023-04-19T15:28:44.669Z,3.47
2023-04-19T15:31:11.359Z,3.63
2023-04-19T15:33:38.093Z,4.10
2023-04-19T15:36:04.865Z,4.00
2023-04-19T15:38:32.301Z,3.67
2023-04-19T15:41:00.657Z,4.18
2023-04-19T15:43:27.425Z,4.53
2023-04-19T15:45:53.987Z,3.85
2023-04-19T15:48:20.867Z,2.75
2023-04-19T15:50:50.678Z,2.00
2023-04-19T15:53:20.006Z,3.63
2023-04-19T15:55:47.960Z,2.10
2023-04-19T15:58:15.276Z,3.40
2023-04-19T16:00:41.717Z,3.42
2023-04-19T16:03:09.568Z,3.08
2023-04-19T16:05:36.185Z,4.68
2023-04-19T16:08:04.814Z,4.32
2023-04-19T16:10:31.594Z,4.43
2023-04-19T16:12:58.145Z,4.43
2023-04-19T16:15:28.428Z,3.22
2023-04-19T16:17:55.246Z,4.43
2023-04-19T16:20:21.847Z,4.35
2023-04-19T16:22:48.539Z,4.75
2023-04-19T16:25:16.210Z,4.72
2023-04-19T16:27:44.209Z,5.15
2023-04-19T16:30:12.292Z,4.82
2023-04-19T16:32:38.992Z,4.55
2023-04-19T16:35:07.018Z,4.85
2023-04-19T16:37:33.840Z,5.13
2023-04-19T16:40:04.671Z,4.97
2023-04-19T16:42:31.391Z,4.10
2023-04-19T16:44:57.858Z,2.47
2023-04-19T16:47:24.382Z,2.80
2023-04-19T16:49:50.913Z,4.20
2023-04-19T16:52:17.610Z,2.42
2023-04-19T16:54:44.825Z,2.45
2023-04-19T16:57:11.587Z,2.53
2023-04-19T16:59:38.154Z,2.03
2023-04-19T17:02:07.440Z,3.97
2023-04-19T17:04:34.397Z,2.65
2023-04-19T17:07:01.103Z,2.90
2023-04-19T17:09:30.856Z,3.05
2023-04-19T17:11:57.796Z,3.15
2023-04-19T17:14:24.367Z,4.82
2023-04-19T17:16:50.916Z,4.18
2023-04-19T17:19:17.742Z,4.28
2023-04-19T17:21:44.583Z,5.60
2023-04-19T17:24:11.285Z,4.97
2023-04-19T17:26:37.934Z,5.20
2023-04-19T17:29:04.752Z,4.65
2023-04-19T17:31:31.414Z,4.90
2023-04-19T17:33:57.944Z,5.20
2023-04-19T17:36:24.633Z,4.55
2023-04-19T17:38:51.282Z,4.40
2023-04-19T17:41:20.684Z,4.78
2023-04-19T17:43:47.877Z,4.60
2023-04-19T17:46:14.868Z,4.82
2023-04-19T17:48:41.879Z,4.32
2023-04-19T17:51:08.553Z,4.60
2023-04-19T17:53:35.117Z,4.20
2023-04-19T17:56:05.338Z,4.10
2023-04-19T17:58:31.890Z,4.78
2023-04-19T18:00:58.418Z,4.95
2023-04-19T18:03:25.223Z,4.65
2023-04-19T18:05:51.807Z,4.30
2023-04-19T18:08:18.304Z,3.72
2023-04-19T18:10:44.745Z,4.43
2023-04-19T18:13:14.101Z,4.35
2023-04-19T18:15:40.569Z,4.60
2023-04-19T18:18:07.146Z,4.68
2023-04-19T18:20:33.703Z,4.50
2023-04-19T18:23:01.518Z,4.30
2023-04-19T18:25:31.189Z,4.10
2023-04-19T18:27:57.635Z,2.60
2023-04-19T18:30:24.139Z,3.83
2023-04-19T18:32:50.638Z,3.97
2023-04-19T18:35:17.279Z,4.65
2023-04-19T18:37:43.756Z,4.25
2023-04-19T18:40:11.289Z,4.60
2023-04-19T18:42:37.778Z,4.20
2023-04-19T18:45:04.580Z,4.20
2023-04-19T18:47:31.315Z,3.85
2023-04-19T18:50:05.428Z,3.50
2023-04-19T18:52:35.411Z,3.90
2023-04-19T18:55:02.744Z,2.55
2023-04-19T18:57:30.602Z,2.47
2023-04-19T19:00:00.999Z,4.20
2023-04-19T19:02:27.892Z,4.80
2023-04-19T19:04:58.408Z,2.80
2023-04-19T19:07:36.245Z,4.65
2023-04-19T19:10:16.832Z,5.43
2023-04-19T19:12:44.658Z,3.75
2023-04-19T19:15:11.242Z,4.75
2023-04-19T19:17:38.065Z,4.90
2023-04-19T19:20:06.813Z,3.55
2023-04-19T19:22:34.089Z,3.42
2023-04-19T19:25:01.205Z,3.50
2023-04-19T19:27:27.968Z,4.65
2023-04-19T19:29:54.856Z,3.83
2023-04-19T19:32:21.415Z,3.67
2023-04-19T19:37:18.250Z,3.97
2023-04-19T19:39:45.612Z,4.55
2023-04-19T19:42:16.229Z,3.70
2023-04-19T19:44:43.037Z,4.93
2023-04-19T19:47:10.958Z,6.53
2023-04-19T19:52:07.460Z,7.15
2023-04-19T19:54:33.994Z,6.97
2023-04-19T19:57:48.429Z,3.50
2023-04-19T19:59:54.561Z,6.97
2023-04-19T20:02:24.474Z,7.40
2023-04-19T20:04:51.430Z,7.35
2023-04-19T20:07:37.247Z,6.43
2023-04-19T20:10:10.998Z,4.00
2023-04-19T20:12:43.181Z,4.53
2023-04-19T20:15:11.978Z,4.53
2023-04-19T20:17:40.378Z,4.03
2023-04-19T20:20:17.355Z,4.57
2023-04-19T20:22:48.067Z,6.65
2023-04-19T20:25:15.208Z,5.50
2023-04-19T20:27:41.809Z,4.25
2023-04-19T20:30:09.163Z,5.75
2023-04-19T20:32:36.558Z,4.57
2023-04-19T20:35:12.699Z,5.28
2023-04-19T20:37:42.820Z,5.40
2023-04-19T20:40:12.115Z,5.75
2023-04-19T20:42:38.783Z,5.35
2023-04-19T20:45:15.082Z,4.50
2023-04-19T20:47:42.724Z,4.43
2023-04-19T20:50:12.569Z,4.70
2023-04-19T20:52:39.206Z,8.70
2023-04-19T20:55:06.462Z,4.75
2023-04-19T20:57:36.030Z,8.02
2023-04-19T21:00:02.602Z,6.47
2023-04-19T21:02:29.251Z,7.75
2023-04-19T21:04:56.035Z,9.15
2023-04-19T21:07:25.900Z,8.25
2023-04-19T21:09:52.359Z,7.40
2023-04-19T21:12:18.853Z,9.65
2023-04-19T21:14:48.596Z,9.68
2023-04-19T21:17:16.018Z,8.63
2023-04-19T21:19:42.495Z,9.25
2023-04-19T21:22:12.034Z,8.80
2023-04-19T21:24:38.473Z,8.52
2023-04-19T21:27:05.200Z,8.68
2023-04-19T21:29:31.662Z,8.15
2023-04-19T21:31:58.254Z,8.45
2023-04-19T21:34:24.761Z,7.03
2023-04-19T21:36:51.327Z,7.25
2023-04-19T21:39:17.988Z,7.22
2023-04-19T21:41:44.612Z,7.60
2023-04-19T21:44:11.095Z,7.18
2023-04-19T21:46:38.502Z,6.88
2023-04-19T21:49:05.054Z,5.18
2023-04-19T21:51:41.258Z,6.90
2023-04-19T21:54:10.732Z,4.32
2023-04-19T21:56:38.162Z,7.72
2023-04-19T21:59:04.742Z,6.07
2023-04-19T22:01:31.212Z,6.93
2023-04-19T22:03:58.871Z,8.40
2023-04-19T22:06:25.666Z,7.10
2023-04-19T22:08:52.383Z,7.90
2023-04-19T22:11:19.995Z,7.03
2023-04-19T22:13:47.043Z,7.85
2023-04-19T22:16:14.978Z,7.65
2023-04-19T22:18:46.241Z,7.85
2023-04-19T22:21:14.377Z,7.00
2023-04-19T22:23:40.865Z,7.82
2023-04-19T22:26:07.302Z,7.97
2023-04-19T22:28:35.956Z,7.32
2023-04-19T22:31:02.433Z,7.45
2023-04-19T22:33:28.893Z,7.40
2023-04-19T22:35:56.492Z,7.32
2023-04-19T22:38:25.049Z,7.93
2023-04-19T22:40:51.486Z,7.18
2023-04-19T22:43:17.998Z,8.40
2023-04-19T22:45:47.751Z,7.70
2023-04-19T22:48:14.896Z,7.03
2023-04-19T22:50:44.270Z,7.57
2023-04-19T22:53:12.659Z,7.82
2023-04-19T22:55:43.406Z,7.25
2023-04-19T22:58:12.933Z,7.75
2023-04-19T23:00:39.493Z,7.65
2023-04-19T23:03:07.017Z,8.00
2023-04-19T23:05:33.652Z,6.53
2023-04-19T23:08:00.222Z,7.10
2023-04-19T23:10:27.036Z,7.75
2023-04-19T23:12:57.303Z,9.30
2023-04-19T23:15:29.499Z,8.52
2023-04-19T23:17:56.538Z,8.40
2023-04-19T23:20:23.344Z,9.48
2023-04-19T23:22:49.768Z,10.25
2023-04-19T23:25:16.475Z,9.60
2023-04-19T23:27:42.909Z,9.65
2023-04-19T23:30:09.701Z,9.00
2023-04-19T23:32:36.267Z,7.88
2023-04-19T23:35:09.179Z,9.43
2023-04-19T23:37:39.365Z,8.27
2023-04-19T23:40:06.687Z,8.38
2023-04-19T23:42:33.505Z,7.20
2023-04-19T23:45:00.007Z,7.38
2023-04-19T23:47:26.607Z,7.70
2023-04-19T23:49:53.110Z,5.35
2023-04-19T23:52:22.544Z,7.07
2023-04-19T23:54:53.016Z,8.45
2023-04-19T23:57:19.578Z,8.40
2023-04-19T23:59:46.076Z,8.60
